sensor_id;sensor_type;location;lat;lon;timestamp;P1;durP1;ratioP1;P2;durP2;ratioP2
52106;SDS011;38105;52.968;5.974;2023-06-14T00:02:11;2.08;;;1.52;;
52106;SDS011;38105;52.968;5.974;2023-06-14T00:04:37;8.93;;;2.17;;
52106;SDS011;38105;52.968;5.974;2023-06-14T00:07:06;7.18;;;1.70;;
52106;SDS011;38105;52.968;5.974;2023-06-14T00:09:35;9.00;;;2.15;;
52106;SDS011;38105;52.968;5.974;2023-06-14T00:12:01;5.28;;;1.77;;
52106;SDS011;38105;52.968;5.974;2023-06-14T00:14:27;5.57;;;1.55;;
52106;SDS011;38105;52.968;5.974;2023-06-14T00:16:52;8.65;;;1.85;;
52106;SDS011;38105;52.968;5.974;2023-06-14T00:19:19;8.43;;;1.80;;
52106;SDS011;38105;52.968;5.974;2023-06-14T00:21:46;4.57;;;1.65;;
52106;SDS011;38105;52.968;5.974;2023-06-14T00:24:12;5.72;;;1.80;;
52106;SDS011;38105;52.968;5.974;2023-06-14T00:26:37;8.90;;;1.75;;
52106;SDS011;38105;52.968;5.974;2023-06-14T00:29:03;7.90;;;1.73;;
52106;SDS011;38105;52.968;5.974;2023-06-14T00:31:29;5.43;;;1.75;;
52106;SDS011;38105;52.968;5.974;2023-06-14T00:33:55;4.35;;;1.90;;
52106;SDS011;38105;52.968;5.974;2023-06-14T00:36:20;7.13;;;1.83;;
52106;SDS011;38105;52.968;5.974;2023-06-14T00:38:46;4.45;;;1.50;;
52106;SDS011;38105;52.968;5.974;2023-06-14T00:41:12;10.60;;;2.20;;
52106;SDS011;38105;52.968;5.974;2023-06-14T00:43:38;6.50;;;1.83;;
52106;SDS011;38105;52.968;5.974;2023-06-14T00:46:03;4.15;;;1.70;;
52106;SDS011;38105;52.968;5.974;2023-06-14T00:48:29;6.50;;;1.67;;
52106;SDS011;38105;52.968;5.974;2023-06-14T00:50:55;5.07;;;1.80;;
52106;SDS011;38105;52.968;5.974;2023-06-14T00:53:22;4.15;;;1.60;;
52106;SDS011;38105;52.968;5.974;2023-06-14T00:55:50;5.32;;;1.60;;
52106;SDS011;38105;52.968;5.974;2023-06-14T00:58:15;5.82;;;2.40;;
52106;SDS011;38105;52.968;5.974;2023-06-14T01:00:42;8.52;;;1.77;;
52106;SDS011;38105;52.968;5.974;2023-06-14T01:03:07;6.03;;;2.00;;
52106;SDS011;38105;52.968;5.974;2023-06-14T01:05:37;4.70;;;1.73;;
52106;SDS011;38105;52.968;5.974;2023-06-14T01:10:47;3.00;;;1.50;;
52106;SDS011;38105;52.968;5.974;2023-06-14T01:13:40;5.15;;;1.60;;
52106;SDS011;38105;52.968;5.974;2023-06-14T01:16:10;6.40;;;1.83;;
52106;SDS011;38105;52.968;5.974;2023-06-14T01:18:39;4.78;;;1.60;;
52106;SDS011;38105;52.968;5.974;2023-06-14T01:21:19;7.68;;;1.98;;
52106;SDS011;38105;52.968;5.974;2023-06-14T01:23:47;8.73;;;1.77;;
52106;SDS011;38105;52.968;5.974;2023-06-14T01:26:24;5.75;;;1.92;;
52106;SDS011;38105;52.968;5.974;2023-06-14T01:28:52;8.90;;;2.00;;
52106;SDS011;38105;52.968;5.974;2023-06-14T01:31:23;2.42;;;1.55;;
52106;SDS011;38105;52.968;5.974;2023-06-14T01:33:50;3.65;;;1.58;;
52106;SDS011;38105;52.968;5.974;2023-06-14T01:36:18;4.20;;;1.90;;
52106;SDS011;38105;52.968;5.974;2023-06-14T01:38:47;6.22;;;1.83;;
52106;SDS011;38105;52.968;5.974;2023-06-14T01:41:17;4.75;;;1.63;;
52106;SDS011;38105;52.968;5.974;2023-06-14T01:43:45;4.82;;;1.83;;
52106;SDS011;38105;52.968;5.974;2023-06-14T01:46:14;3.85;;;1.77;;
52106;SDS011;38105;52.968;5.974;2023-06-14T01:48:43;7.38;;;2.15;;
52106;SDS011;38105;52.968;5.974;2023-06-14T01:51:09;3.40;;;1.50;;
52106;SDS011;38105;52.968;5.974;2023-06-14T01:53:37;7.32;;;1.90;;
52106;SDS011;38105;52.968;5.974;2023-06-14T01:56:03;4.07;;;1.98;;
52106;SDS011;38105;52.968;5.974;2023-06-14T01:58:29;4.80;;;1.80;;
52106;SDS011;38105;52.968;5.974;2023-06-14T02:00:54;5.57;;;1.77;;
52106;SDS011;38105;52.968;5.974;2023-06-14T02:03:20;5.43;;;1.77;;
52106;SDS011;38105;52.968;5.974;2023-06-14T02:05:46;3.70;;;1.80;;
52106;SDS011;38105;52.968;5.974;2023-06-14T02:08:12;12.80;;;1.92;;
52106;SDS011;38105;52.968;5.974;2023-06-14T02:10:38;3.15;;;1.77;;
52106;SDS011;38105;52.968;5.974;2023-06-14T02:13:03;4.93;;;1.90;;
52106;SDS011;38105;52.968;5.974;2023-06-14T02:15:29;2.92;;;1.70;;
52106;SDS011;38105;52.968;5.974;2023-06-14T02:17:59;7.40;;;1.80;;
52106;SDS011;38105;52.968;5.974;2023-06-14T02:20:26;8.90;;;1.88;;
52106;SDS011;38105;52.968;5.974;2023-06-14T02:22:51;5.25;;;1.90;;
52106;SDS011;38105;52.968;5.974;2023-06-14T02:25:17;7.60;;;2.03;;
52106;SDS011;38105;52.968;5.974;2023-06-14T02:27:43;6.88;;;1.95;;
52106;SDS011;38105;52.968;5.974;2023-06-14T02:30:08;6.93;;;2.30;;
52106;SDS011;38105;52.968;5.974;2023-06-14T02:32:34;7.68;;;2.00;;
52106;SDS011;38105;52.968;5.974;2023-06-14T02:35:00;2.80;;;1.73;;
52106;SDS011;38105;52.968;5.974;2023-06-14T02:37:26;3.35;;;1.80;;
52106;SDS011;38105;52.968;5.974;2023-06-14T02:39:52;7.05;;;1.60;;
52106;SDS011;38105;52.968;5.974;2023-06-14T02:42:18;4.75;;;1.90;;
52106;SDS011;38105;52.968;5.974;2023-06-14T02:44:43;4.97;;;1.85;;
52106;SDS011;38105;52.968;5.974;2023-06-14T02:47:11;5.82;;;1.80;;
52106;SDS011;38105;52.968;5.974;2023-06-14T02:49:37;7.07;;;1.83;;
52106;SDS011;38105;52.968;5.974;2023-06-14T02:52:03;5.07;;;1.83;;
52106;SDS011;38105;52.968;5.974;2023-06-14T02:54:29;3.63;;;1.67;;
52106;SDS011;38105;52.968;5.974;2023-06-14T02:56:54;5.20;;;1.80;;
52106;SDS011;38105;52.968;5.974;2023-06-14T02:59:20;5.63;;;1.88;;
52106;SDS011;38105;52.968;5.974;2023-06-14T03:01:46;5.30;;;1.73;;
52106;SDS011;38105;52.968;5.974;2023-06-14T03:04:12;3.08;;;1.63;;
52106;SDS011;38105;52.968;5.974;2023-06-14T03:06:38;9.93;;;2.28;;
52106;SDS011;38105;52.968;5.974;2023-06-14T03:09:06;5.78;;;1.60;;
52106;SDS011;38105;52.968;5.974;2023-06-14T03:11:32;4.93;;;2.00;;
52106;SDS011;38105;52.968;5.974;2023-06-14T03:13:58;8.57;;;1.90;;
52106;SDS011;38105;52.968;5.974;2023-06-14T03:16:24;11.05;;;2.60;;
52106;SDS011;38105;52.968;5.974;2023-06-14T03:18:52;6.10;;;2.30;;
52106;SDS011;38105;52.968;5.974;2023-06-14T03:21:18;9.85;;;2.15;;
52106;SDS011;38105;52.968;5.974;2023-06-14T03:23:47;6.03;;;2.00;;
52106;SDS011;38105;52.968;5.974;2023-06-14T03:26:14;3.90;;;1.80;;
52106;SDS011;38105;52.968;5.974;2023-06-14T03:28:45;6.10;;;2.33;;
52106;SDS011;38105;52.968;5.974;2023-06-14T03:31:12;4.68;;;1.95;;
52106;SDS011;38105;52.968;5.974;2023-06-14T03:33:38;4.28;;;2.00;;
52106;SDS011;38105;52.968;5.974;2023-06-14T03:36:04;5.82;;;1.90;;
52106;SDS011;38105;52.968;5.974;2023-06-14T03:38:31;5.65;;;2.20;;
52106;SDS011;38105;52.968;5.974;2023-06-14T03:40:59;3.92;;;1.70;;
52106;SDS011;38105;52.968;5.974;2023-06-14T03:43:25;7.00;;;2.05;;
52106;SDS011;38105;52.968;5.974;2023-06-14T03:45:52;2.97;;;2.15;;
52106;SDS011;38105;52.968;5.974;2023-06-14T03:48:17;8.23;;;2.10;;
52106;SDS011;38105;52.968;5.974;2023-06-14T03:50:48;5.68;;;2.30;;
52106;SDS011;38105;52.968;5.974;2023-06-14T03:53:14;6.00;;;2.15;;
52106;SDS011;38105;52.968;5.974;2023-06-14T03:55:39;8.10;;;2.40;;
52106;SDS011;38105;52.968;5.974;2023-06-14T03:58:06;6.45;;;2.15;;
52106;SDS011;38105;52.968;5.974;2023-06-14T04:00:32;2.45;;;2.00;;
52106;SDS011;38105;52.968;5.974;2023-06-14T04:02:57;10.85;;;2.40;;
52106;SDS011;38105;52.968;5.974;2023-06-14T04:05:24;6.05;;;2.60;;
52106;SDS011;38105;52.968;5.974;2023-06-14T04:07:51;5.57;;;2.42;;
52106;SDS011;38105;52.968;5.974;2023-06-14T04:10:17;6.40;;;2.00;;
52106;SDS011;38105;52.968;5.974;2023-06-14T04:12:43;6.57;;;2.25;;
52106;SDS011;38105;52.968;5.974;2023-06-14T04:15:09;6.63;;;2.60;;
52106;SDS011;38105;52.968;5.974;2023-06-14T04:17:35;5.95;;;2.22;;
52106;SDS011;38105;52.968;5.974;2023-06-14T04:20:02;5.38;;;1.98;;
52106;SDS011;38105;52.968;5.974;2023-06-14T04:22:30;4.95;;;1.90;;
52106;SDS011;38105;52.968;5.974;2023-06-14T04:24:56;9.25;;;2.55;;
52106;SDS011;38105;52.968;5.974;2023-06-14T04:27:22;7.65;;;2.25;;
52106;SDS011;38105;52.968;5.974;2023-06-14T04:29:54;6.10;;;2.38;;
52106;SDS011;38105;52.968;5.974;2023-06-14T04:32:24;7.13;;;2.00;;
52106;SDS011;38105;52.968;5.974;2023-06-14T04:34:54;6.55;;;2.15;;
52106;SDS011;38105;52.968;5.974;2023-06-14T04:37:21;5.00;;;2.78;;
52106;SDS011;38105;52.968;5.974;2023-06-14T04:39:49;7.00;;;2.15;;
52106;SDS011;38105;52.968;5.974;2023-06-14T04:42:16;3.88;;;2.17;;
52106;SDS011;38105;52.968;5.974;2023-06-14T04:44:45;3.92;;;2.20;;
52106;SDS011;38105;52.968;5.974;2023-06-14T04:47:12;6.80;;;2.20;;
52106;SDS011;38105;52.968;5.974;2023-06-14T04:49:41;3.85;;;2.10;;
52106;SDS011;38105;52.968;5.974;2023-06-14T04:52:06;5.75;;;2.10;;
52106;SDS011;38105;52.968;5.974;2023-06-14T04:54:35;10.57;;;2.72;;
52106;SDS011;38105;52.968;5.974;2023-06-14T04:57:07;5.15;;;2.00;;
52106;SDS011;38105;52.968;5.974;2023-06-14T04:59:33;6.47;;;2.20;;
52106;SDS011;38105;52.968;5.974;2023-06-14T05:02:01;5.72;;;2.20;;
52106;SDS011;38105;52.968;5.974;2023-06-14T05:04:27;4.85;;;2.05;;
52106;SDS011;38105;52.968;5.974;2023-06-14T05:06:54;6.72;;;2.25;;
52106;SDS011;38105;52.968;5.974;2023-06-14T05:09:20;5.78;;;2.10;;
52106;SDS011;38105;52.968;5.974;2023-06-14T05:11:46;6.38;;;2.10;;
52106;SDS011;38105;52.968;5.974;2023-06-14T05:14:13;5.75;;;2.38;;
52106;SDS011;38105;52.968;5.974;2023-06-14T05:16:39;6.65;;;2.30;;
52106;SDS011;38105;52.968;5.974;2023-06-14T05:19:05;6.50;;;2.00;;
52106;SDS011;38105;52.968;5.974;2023-06-14T05:21:31;6.05;;;2.25;;
52106;SDS011;38105;52.968;5.974;2023-06-14T05:23:59;6.32;;;1.98;;
52106;SDS011;38105;52.968;5.974;2023-06-14T05:26:25;8.32;;;3.08;;
52106;SDS011;38105;52.968;5.974;2023-06-14T05:28:58;6.82;;;2.00;;
52106;SDS011;38105;52.968;5.974;2023-06-14T05:31:25;10.32;;;2.67;;
52106;SDS011;38105;52.968;5.974;2023-06-14T05:33:52;4.05;;;2.10;;
52106;SDS011;38105;52.968;5.974;2023-06-14T05:36:18;6.30;;;2.13;;
52106;SDS011;38105;52.968;5.974;2023-06-14T05:38:45;5.13;;;2.00;;
52106;SDS011;38105;52.968;5.974;2023-06-14T05:41:13;5.72;;;2.22;;
52106;SDS011;38105;52.968;5.974;2023-06-14T05:43:39;6.55;;;2.42;;
52106;SDS011;38105;52.968;5.974;2023-06-14T05:46:04;6.38;;;2.05;;
52106;SDS011;38105;52.968;5.974;2023-06-14T05:48:30;8.63;;;2.20;;
52106;SDS011;38105;52.968;5.974;2023-06-14T05:50:56;6.93;;;2.28;;
52106;SDS011;38105;52.968;5.974;2023-06-14T05:53:22;8.00;;;2.33;;
52106;SDS011;38105;52.968;5.974;2023-06-14T05:55:49;7.30;;;2.53;;
52106;SDS011;38105;52.968;5.974;2023-06-14T05:58:16;7.28;;;2.22;;
52106;SDS011;38105;52.968;5.974;2023-06-14T06:00:42;8.65;;;2.20;;
52106;SDS011;38105;52.968;5.974;2023-06-14T06:03:08;9.65;;;2.58;;
52106;SDS011;38105;52.968;5.974;2023-06-14T06:05:36;7.75;;;1.90;;
52106;SDS011;38105;52.968;5.974;2023-06-14T06:08:01;5.70;;;2.10;;
52106;SDS011;38105;52.968;5.974;2023-06-14T06:10:27;5.40;;;1.80;;
52106;SDS011;38105;52.968;5.974;2023-06-14T06:12:53;8.68;;;1.77;;
52106;SDS011;38105;52.968;5.974;2023-06-14T06:15:19;15.88;;;2.10;;
52106;SDS011;38105;52.968;5.974;2023-06-14T06:17:45;4.70;;;2.10;;
52106;SDS011;38105;52.968;5.974;2023-06-14T06:20:11;5.15;;;2.00;;
52106;SDS011;38105;52.968;5.974;2023-06-14T06:22:37;5.80;;;1.92;;
52106;SDS011;38105;52.968;5.974;2023-06-14T06:25:04;5.00;;;1.70;;
52106;SDS011;38105;52.968;5.974;2023-06-14T06:27:31;6.93;;;2.15;;
52106;SDS011;38105;52.968;5.974;2023-06-14T06:30:00;5.88;;;1.90;;
52106;SDS011;38105;52.968;5.974;2023-06-14T06:32:26;6.18;;;1.80;;
52106;SDS011;38105;52.968;5.974;2023-06-14T06:34:54;3.80;;;1.88;;
52106;SDS011;38105;52.968;5.974;2023-06-14T06:37:19;6.18;;;1.80;;
52106;SDS011;38105;52.968;5.974;2023-06-14T06:39:45;9.90;;;2.28;;
52106;SDS011;38105;52.968;5.974;2023-06-14T06:42:14;4.90;;;1.90;;
52106;SDS011;38105;52.968;5.974;2023-06-14T06:44:40;2.65;;;1.60;;
52106;SDS011;38105;52.968;5.974;2023-06-14T06:47:07;5.68;;;1.63;;
52106;SDS011;38105;52.968;5.974;2023-06-14T06:49:37;6.10;;;1.52;;
52106;SDS011;38105;52.968;5.974;2023-06-14T06:52:06;5.13;;;1.38;;
52106;SDS011;38105;52.968;5.974;2023-06-14T06:54:32;5.25;;;1.88;;
52106;SDS011;38105;52.968;5.974;2023-06-14T06:56:59;6.65;;;1.65;;
52106;SDS011;38105;52.968;5.974;2023-06-14T06:59:26;6.78;;;1.40;;
52106;SDS011;38105;52.968;5.974;2023-06-14T07:01:52;4.88;;;1.70;;
52106;SDS011;38105;52.968;5.974;2023-06-14T07:04:18;4.13;;;1.67;;
52106;SDS011;38105;52.968;5.974;2023-06-14T07:06:44;4.43;;;1.58;;
52106;SDS011;38105;52.968;5.974;2023-06-14T07:09:11;5.00;;;1.45;;
52106;SDS011;38105;52.968;5.974;2023-06-14T07:11:42;7.15;;;1.48;;
52106;SDS011;38105;52.968;5.974;2023-06-14T07:14:08;4.00;;;1.30;;
52106;SDS011;38105;52.968;5.974;2023-06-14T07:16:34;2.30;;;1.13;;
52106;SDS011;38105;52.968;5.974;2023-06-14T07:19:01;3.22;;;1.15;;
52106;SDS011;38105;52.968;5.974;2023-06-14T07:21:27;4.80;;;1.55;;
52106;SDS011;38105;52.968;5.974;2023-06-14T07:23:53;2.35;;;1.30;;
52106;SDS011;38105;52.968;5.974;2023-06-14T07:26:22;7.13;;;1.80;;
52106;SDS011;38105;52.968;5.974;2023-06-14T07:28:48;5.20;;;1.17;;
52106;SDS011;38105;52.968;5.974;2023-06-14T07:31:16;4.75;;;1.30;;
52106;SDS011;38105;52.968;5.974;2023-06-14T07:33:44;3.72;;;1.23;;
52106;SDS011;38105;52.968;5.974;2023-06-14T07:36:12;4.78;;;1.42;;
52106;SDS011;38105;52.968;5.974;2023-06-14T07:38:38;7.55;;;1.13;;
52106;SDS011;38105;52.968;5.974;2023-06-14T07:41:08;4.22;;;1.35;;
52106;SDS011;38105;52.968;5.974;2023-06-14T07:43:34;3.90;;;1.40;;
52106;SDS011;38105;52.968;5.974;2023-06-14T07:46:01;5.35;;;1.17;;
52106;SDS011;38105;52.968;5.974;2023-06-14T07:48:27;3.28;;;1.42;;
52106;SDS011;38105;52.968;5.974;2023-06-14T07:50:53;8.02;;;1.40;;
52106;SDS011;38105;52.968;5.974;2023-06-14T07:53:19;7.47;;;1.45;;
52106;SDS011;38105;52.968;5.974;2023-06-14T07:55:45;4.10;;;1.30;;
52106;SDS011;38105;52.968;5.974;2023-06-14T07:58:12;4.03;;;1.33;;
52106;SDS011;38105;52.968;5.974;2023-06-14T08:00:38;5.78;;;1.50;;
52106;SDS011;38105;52.968;5.974;2023-06-14T08:03:06;6.07;;;1.20;;
52106;SDS011;38105;52.968;5.974;2023-06-14T08:05:32;4.88;;;1.30;;
52106;SDS011;38105;52.968;5.974;2023-06-14T08:07:58;5.47;;;1.50;;
52106;SDS011;38105;52.968;5.974;2023-06-14T08:10:24;7.25;;;1.55;;
52106;SDS011;38105;52.968;5.974;2023-06-14T08:12:50;7.43;;;1.40;;
52106;SDS011;38105;52.968;5.974;2023-06-14T08:15:19;4.53;;;1.58;;
52106;SDS011;38105;52.968;5.974;2023-06-14T08:17:47;4.78;;;1.35;;
52106;SDS011;38105;52.968;5.974;2023-06-14T08:20:13;4.95;;;1.35;;
52106;SDS011;38105;52.968;5.974;2023-06-14T08:22:42;2.45;;;1.35;;
52106;SDS011;38105;52.968;5.974;2023-06-14T08:25:07;3.28;;;1.27;;
52106;SDS011;38105;52.968;5.974;2023-06-14T08:27:34;3.67;;;1.40;;
52106;SDS011;38105;52.968;5.974;2023-06-14T08:30:00;4.35;;;1.50;;
52106;SDS011;38105;52.968;5.974;2023-06-14T08:32:27;3.33;;;1.45;;
52106;SDS011;38105;52.968;5.974;2023-06-14T08:34:53;7.32;;;1.60;;
52106;SDS011;38105;52.968;5.974;2023-06-14T08:37:18;3.83;;;1.30;;
52106;SDS011;38105;52.968;5.974;2023-06-14T08:39:45;5.88;;;1.40;;
52106;SDS011;38105;52.968;5.974;2023-06-14T08:42:11;6.78;;;1.67;;
52106;SDS011;38105;52.968;5.974;2023-06-14T08:44:39;5.38;;;1.40;;
52106;SDS011;38105;52.968;5.974;2023-06-14T08:47:08;9.63;;;1.85;;
52106;SDS011;38105;52.968;5.974;2023-06-14T08:49:36;6.00;;;1.48;;
52106;SDS011;38105;52.968;5.974;2023-06-14T08:52:05;2.97;;;1.40;;
52106;SDS011;38105;52.968;5.974;2023-06-14T08:54:35;3.47;;;1.27;;
52106;SDS011;38105;52.968;5.974;2023-06-14T08:57:10;5.05;;;1.48;;
52106;SDS011;38105;52.968;5.974;2023-06-14T08:59:42;6.80;;;1.27;;
52106;SDS011;38105;52.968;5.974;2023-06-14T09:02:14;3.28;;;1.33;;
52106;SDS011;38105;52.968;5.974;2023-06-14T09:04:43;3.17;;;1.38;;
52106;SDS011;38105;52.968;5.974;2023-06-14T09:07:09;5.75;;;1.25;;
52106;SDS011;38105;52.968;5.974;2023-06-14T09:09:42;6.05;;;1.20;;
52106;SDS011;38105;52.968;5.974;2023-06-14T09:12:08;3.05;;;1.30;;
52106;SDS011;38105;52.968;5.974;2023-06-14T09:14:36;5.65;;;1.58;;
52106;SDS011;38105;52.968;5.974;2023-06-14T09:17:04;2.97;;;1.00;;
52106;SDS011;38105;52.968;5.974;2023-06-14T09:19:30;3.75;;;1.30;;
52106;SDS011;38105;52.968;5.974;2023-06-14T09:21:56;6.03;;;1.02;;
52106;SDS011;38105;52.968;5.974;2023-06-14T09:24:23;2.60;;;1.33;;
52106;SDS011;38105;52.968;5.974;2023-06-14T09:26:50;4.30;;;1.33;;
52106;SDS011;38105;52.968;5.974;2023-06-14T09:29:16;2.33;;;1.15;;
52106;SDS011;38105;52.968;5.974;2023-06-14T09:31:43;4.75;;;1.23;;
52106;SDS011;38105;52.968;5.974;2023-06-14T09:34:12;7.03;;;1.50;;
52106;SDS011;38105;52.968;5.974;2023-06-14T09:36:39;9.40;;;1.50;;
52106;SDS011;38105;52.968;5.974;2023-06-14T09:39:07;5.50;;;1.30;;
52106;SDS011;38105;52.968;5.974;2023-06-14T09:41:37;3.22;;;1.30;;
52106;SDS011;38105;52.968;5.974;2023-06-14T09:44:08;5.78;;;1.13;;
52106;SDS011;38105;52.968;5.974;2023-06-14T09:46:34;4.85;;;1.50;;
52106;SDS011;38105;52.968;5.974;2023-06-14T09:49:02;5.97;;;1.40;;
52106;SDS011;38105;52.968;5.974;2023-06-14T09:51:28;2.90;;;1.17;;
52106;SDS011;38105;52.968;5.974;2023-06-14T09:54:01;2.50;;;1.02;;
52106;SDS011;38105;52.968;5.974;2023-06-14T09:56:30;4.90;;;1.52;;
52106;SDS011;38105;52.968;5.974;2023-06-14T09:59:01;2.45;;;1.20;;
52106;SDS011;38105;52.968;5.974;2023-06-14T10:01:30;4.38;;;1.10;;
52106;SDS011;38105;52.968;5.974;2023-06-14T10:04:03;2.28;;;1.10;;
52106;SDS011;38105;52.968;5.974;2023-06-14T10:06:30;1.88;;;1.00;;
52106;SDS011;38105;52.968;5.974;2023-06-14T10:08:57;3.35;;;1.50;;
52106;SDS011;38105;52.968;5.974;2023-06-14T10:11:26;3.22;;;1.33;;
52106;SDS011;38105;52.968;5.974;2023-06-14T10:13:55;10.52;;;1.40;;
52106;SDS011;38105;52.968;5.974;2023-06-14T10:16:24;3.88;;;1.58;;
52106;SDS011;38105;52.968;5.974;2023-06-14T10:19:06;5.00;;;1.20;;
52106;SDS011;38105;52.968;5.974;2023-06-14T10:21:58;3.80;;;1.30;;
52106;SDS011;38105;52.968;5.974;2023-06-14T10:24:27;3.92;;;1.20;;
52106;SDS011;38105;52.968;5.974;2023-06-14T10:26:57;5.25;;;1.45;;
52106;SDS011;38105;52.968;5.974;2023-06-14T10:29:25;5.93;;;1.63;;
52106;SDS011;38105;52.968;5.974;2023-06-14T10:31:55;3.22;;;1.40;;
52106;SDS011;38105;52.968;5.974;2023-06-14T10:34:22;7.03;;;1.40;;
52106;SDS011;38105;52.968;5.974;2023-06-14T10:39:39;3.50;;;1.40;;
52106;SDS011;38105;52.968;5.974;2023-06-14T10:42:06;3.65;;;1.30;;
52106;SDS011;38105;52.968;5.974;2023-06-14T10:47:21;4.18;;;1.30;;
52106;SDS011;38105;52.968;5.974;2023-06-14T10:49:51;2.83;;;1.33;;
52106;SDS011;38105;52.968;5.974;2023-06-14T10:52:23;6.32;;;1.40;;
52106;SDS011;38105;52.968;5.974;2023-06-14T10:57:49;7.20;;;1.38;;
52106;SDS011;38105;52.968;5.974;2023-06-14T11:00:23;4.55;;;1.23;;
52106;SDS011;38105;52.968;5.974;2023-06-14T11:02:53;3.05;;;1.15;;
52106;SDS011;38105;52.968;5.974;2023-06-14T11:08:27;3.67;;;1.35;;
52106;SDS011;38105;52.968;5.974;2023-06-14T11:11:22;7.32;;;1.52;;
52106;SDS011;38105;52.968;5.974;2023-06-14T11:13:51;6.18;;;1.27;;
52106;SDS011;38105;52.968;5.974;2023-06-14T11:16:17;3.83;;;1.20;;
52106;SDS011;38105;52.968;5.974;2023-06-14T11:18:45;4.97;;;1.30;;
52106;SDS011;38105;52.968;5.974;2023-06-14T11:21:14;3.67;;;1.20;;
52106;SDS011;38105;52.968;5.974;2023-06-14T11:23:41;5.50;;;1.35;;
52106;SDS011;38105;52.968;5.974;2023-06-14T11:26:07;5.10;;;1.60;;
52106;SDS011;38105;52.968;5.974;2023-06-14T11:28:37;3.17;;;1.40;;
52106;SDS011;38105;52.968;5.974;2023-06-14T11:31:03;7.15;;;1.20;;
52106;SDS011;38105;52.968;5.974;2023-06-14T11:33:29;3.40;;;1.25;;
52106;SDS011;38105;52.968;5.974;2023-06-14T11:35:55;6.07;;;1.48;;
52106;SDS011;38105;52.968;5.974;2023-06-14T11:38:20;4.32;;;1.30;;
52106;SDS011;38105;52.968;5.974;2023-06-14T11:40:46;6.35;;;1.40;;
52106;SDS011;38105;52.968;5.974;2023-06-14T11:43:11;4.93;;;1.10;;
52106;SDS011;38105;52.968;5.974;2023-06-14T11:45:38;6.13;;;1.42;;
52106;SDS011;38105;52.968;5.974;2023-06-14T11:48:04;3.58;;;1.40;;
52106;SDS011;38105;52.968;5.974;2023-06-14T11:50:31;6.18;;;1.30;;
52106;SDS011;38105;52.968;5.974;2023-06-14T11:53:10;4.82;;;1.10;;
52106;SDS011;38105;52.968;5.974;2023-06-14T11:55:37;4.78;;;1.02;;
52106;SDS011;38105;52.968;5.974;2023-06-14T11:58:04;4.97;;;1.13;;
52106;SDS011;38105;52.968;5.974;2023-06-14T12:00:30;3.45;;;1.00;;
52106;SDS011;38105;52.968;5.974;2023-06-14T12:02:56;5.20;;;1.00;;
52106;SDS011;38105;52.968;5.974;2023-06-14T12:05:22;4.57;;;1.10;;
52106;SDS011;38105;52.968;5.974;2023-06-14T12:07:48;9.23;;;1.20;;
52106;SDS011;38105;52.968;5.974;2023-06-14T12:10:15;3.67;;;1.00;;
52106;SDS011;38105;52.968;5.974;2023-06-14T12:12:41;6.13;;;0.90;;
52106;SDS011;38105;52.968;5.974;2023-06-14T12:15:08;1.75;;;0.93;;
52106;SDS011;38105;52.968;5.974;2023-06-14T12:17:36;7.07;;;1.38;;
52106;SDS011;38105;52.968;5.974;2023-06-14T12:20:12;4.05;;;0.80;;
52106;SDS011;38105;52.968;5.974;2023-06-14T12:22:59;2.75;;;0.90;;
52106;SDS011;38105;52.968;5.974;2023-06-14T12:25:32;3.40;;;0.90;;
52106;SDS011;38105;52.968;5.974;2023-06-14T12:28:07;3.15;;;1.00;;
52106;SDS011;38105;52.968;5.974;2023-06-14T12:30:33;2.80;;;1.10;;
52106;SDS011;38105;52.968;5.974;2023-06-14T12:33:01;4.35;;;0.73;;
52106;SDS011;38105;52.968;5.974;2023-06-14T12:35:27;1.95;;;0.95;;
52106;SDS011;38105;52.968;5.974;2023-06-14T12:37:53;3.70;;;1.08;;
52106;SDS011;38105;52.968;5.974;2023-06-14T12:40:18;2.75;;;1.00;;
52106;SDS011;38105;52.968;5.974;2023-06-14T12:42:44;2.97;;;1.05;;
52106;SDS011;38105;52.968;5.974;2023-06-14T12:45:12;5.60;;;1.23;;
52106;SDS011;38105;52.968;5.974;2023-06-14T12:47:38;1.70;;;0.80;;
52106;SDS011;38105;52.968;5.974;2023-06-14T12:50:04;4.53;;;1.30;;
52106;SDS011;38105;52.968;5.974;2023-06-14T12:52:30;5.18;;;1.10;;
52106;SDS011;38105;52.968;5.974;2023-06-14T12:54:56;1.98;;;1.23;;
52106;SDS011;38105;52.968;5.974;2023-06-14T12:57:21;4.40;;;1.05;;
52106;SDS011;38105;52.968;5.974;2023-06-14T12:59:48;3.88;;;0.93;;
52106;SDS011;38105;52.968;5.974;2023-06-14T13:02:16;6.55;;;1.25;;
52106;SDS011;38105;52.968;5.974;2023-06-14T13:04:43;4.38;;;1.25;;
52106;SDS011;38105;52.968;5.974;2023-06-14T13:07:09;2.55;;;1.20;;
52106;SDS011;38105;52.968;5.974;2023-06-14T13:09:35;6.45;;;1.00;;
52106;SDS011;38105;52.968;5.974;2023-06-14T13:12:01;2.97;;;1.10;;
52106;SDS011;38105;52.968;5.974;2023-06-14T13:14:28;2.80;;;0.85;;
52106;SDS011;38105;52.968;5.974;2023-06-14T13:16:53;8.40;;;1.58;;
52106;SDS011;38105;52.968;5.974;2023-06-14T13:19:19;4.05;;;1.33;;
52106;SDS011;38105;52.968;5.974;2023-06-14T13:21:45;1.80;;;1.10;;
52106;SDS011;38105;52.968;5.974;2023-06-14T13:24:11;4.22;;;1.25;;
52106;SDS011;38105;52.968;5.974;2023-06-14T13:26:37;3.55;;;1.00;;
52106;SDS011;38105;52.968;5.974;2023-06-14T13:29:02;6.00;;;1.25;;
52106;SDS011;38105;52.968;5.974;2023-06-14T13:31:28;4.90;;;0.90;;
52106;SDS011;38105;52.968;5.974;2023-06-14T13:33:54;4.10;;;1.00;;
52106;SDS011;38105;52.968;5.974;2023-06-14T13:36:20;2.88;;;1.05;;
52106;SDS011;38105;52.968;5.974;2023-06-14T13:38:46;4.10;;;1.00;;
52106;SDS011;38105;52.968;5.974;2023-06-14T13:41:11;5.80;;;1.40;;
52106;SDS011;38105;52.968;5.974;2023-06-14T13:43:37;3.58;;;1.00;;
52106;SDS011;38105;52.968;5.974;2023-06-14T13:46:03;5.18;;;1.02;;
52106;SDS011;38105;52.968;5.974;2023-06-14T13:48:28;4.25;;;1.30;;
52106;SDS011;38105;52.968;5.974;2023-06-14T13:50:54;4.25;;;1.13;;
52106;SDS011;38105;52.968;5.974;2023-06-14T13:53:20;4.43;;;0.85;;
52106;SDS011;38105;52.968;5.974;2023-06-14T13:55:45;3.95;;;1.05;;
52106;SDS011;38105;52.968;5.974;2023-06-14T13:58:11;5.07;;;1.10;;
52106;SDS011;38105;52.968;5.974;2023-06-14T14:00:37;6.97;;;1.30;;
52106;SDS011;38105;52.968;5.974;2023-06-14T14:03:05;5.03;;;1.00;;
52106;SDS011;38105;52.968;5.974;2023-06-14T14:05:31;3.28;;;0.82;;
52106;SDS011;38105;52.968;5.974;2023-06-14T14:07:57;5.05;;;0.93;;
52106;SDS011;38105;52.968;5.974;2023-06-14T14:10:26;4.20;;;1.10;;
52106;SDS011;38105;52.968;5.974;2023-06-14T14:12:52;4.35;;;1.30;;
52106;SDS011;38105;52.968;5.974;2023-06-14T14:15:18;3.50;;;1.45;;
52106;SDS011;38105;52.968;5.974;2023-06-14T14:17:43;3.55;;;1.30;;
52106;SDS011;38105;52.968;5.974;2023-06-14T14:20:09;2.78;;;1.20;;
52106;SDS011;38105;52.968;5.974;2023-06-14T14:22:37;2.22;;;0.90;;
52106;SDS011;38105;52.968;5.974;2023-06-14T14:25:03;5.90;;;1.02;;
52106;SDS011;38105;52.968;5.974;2023-06-14T14:27:29;4.47;;;0.90;;
52106;SDS011;38105;52.968;5.974;2023-06-14T14:29:54;2.53;;;1.10;;
52106;SDS011;38105;52.968;5.974;2023-06-14T14:32:20;5.20;;;1.17;;
52106;SDS011;38105;52.968;5.974;2023-06-14T14:34:45;5.57;;;1.00;;
52106;SDS011;38105;52.968;5.974;2023-06-14T14:37:11;6.32;;;1.23;;
52106;SDS011;38105;52.968;5.974;2023-06-14T14:39:38;6.32;;;1.30;;
52106;SDS011;38105;52.968;5.974;2023-06-14T14:42:04;2.85;;;1.00;;
52106;SDS011;38105;52.968;5.974;2023-06-14T14:44:30;3.60;;;1.10;;
52106;SDS011;38105;52.968;5.974;2023-06-14T14:46:56;3.58;;;1.13;;
52106;SDS011;38105;52.968;5.974;2023-06-14T14:49:21;4.10;;;1.20;;
52106;SDS011;38105;52.968;5.974;2023-06-14T14:51:47;2.75;;;0.82;;
52106;SDS011;38105;52.968;5.974;2023-06-14T14:54:12;2.72;;;1.02;;
52106;SDS011;38105;52.968;5.974;2023-06-14T14:56:38;3.47;;;1.00;;
52106;SDS011;38105;52.968;5.974;2023-06-14T14:59:04;5.15;;;1.00;;
52106;SDS011;38105;52.968;5.974;2023-06-14T15:01:30;2.67;;;0.85;;
52106;SDS011;38105;52.968;5.974;2023-06-14T15:03:55;3.47;;;1.00;;